createdAt,value
2022-11-02T00:00:35.129Z,100924.03
2022-11-02T00:03:22.818Z,100926.84
2022-11-02T00:05:50.013Z,100914.69
2022-11-02T00:08:17.274Z,100909.66
2022-11-02T00:10:44.684Z,100916.63
2022-11-02T00:13:12.523Z,100915.78
2022-11-02T00:15:39.642Z,100922.81
2022-11-02T00:18:11.612Z,100924.59
2022-11-02T00:20:40.266Z,100910.56
2022-11-02T00:23:10.873Z,100905.47
2022-11-02T00:25:44.263Z,100915.13
2022-11-02T00:28:12.676Z,100917.03
2022-11-02T00:30:39.820Z,100920.69
2022-11-02T00:33:07.301Z,100905.00
2022-11-02T00:35:36.523Z,100895.66
2022-11-02T00:38:04.398Z,100910.56
2022-11-02T00:40:32.860Z,100894.78
2022-11-02T00:43:00.118Z,100901.88
2022-11-02T00:45:27.099Z,100898.34
2022-11-02T00:47:54.695Z,100885.28
2022-11-02T00:50:21.728Z,100902.03
2022-11-02T00:52:49.053Z,100888.00
2022-11-02T00:55:18.143Z,100899.34
2022-11-02T00:57:45.558Z,100898.53
2022-11-02T01:00:12.966Z,100889.72
2022-11-02T01:02:41.259Z,100888.84
2022-11-02T01:05:10.237Z,100889.81
2022-11-02T01:07:37.802Z,100881.19
2022-11-02T01:10:07.361Z,100872.44
2022-11-02T01:12:37.702Z,100884.00
2022-11-02T01:15:07.130Z,100874.47
2022-11-02T01:17:34.673Z,100879.78
2022-11-02T01:20:02.094Z,100878.03
2022-11-02T01:22:29.289Z,100878.16
2022-11-02T01:24:56.259Z,100882.63
2022-11-02T01:27:23.886Z,100879.16
2022-11-02T01:29:57.216Z,100877.34
2022-11-02T01:32:40.634Z,100872.94
2022-11-02T01:35:08.294Z,100870.22
2022-11-02T01:37:35.513Z,100877.28
2022-11-02T01:40:02.797Z,100876.44
2022-11-02T01:42:29.966Z,100863.31
2022-11-02T01:44:57.386Z,100862.50
2022-11-02T01:47:40.645Z,100866.91
2022-11-02T01:50:22.324Z,100871.38
2022-11-02T01:52:49.410Z,100874.03
2022-11-02T01:55:29.508Z,100864.28
2022-11-02T01:58:10.281Z,100867.53
2022-11-02T02:00:38.879Z,100870.09
2022-11-02T02:03:09.456Z,100867.53
2022-11-02T02:05:49.557Z,100853.38
2022-11-02T02:08:20.164Z,100864.06
2022-11-02T02:10:47.462Z,100868.44
2022-11-02T02:13:15.961Z,100867.47
2022-11-02T02:16:15.811Z,100864.78
2022-11-02T02:18:50.495Z,100863.84
2022-11-02T02:21:51.346Z,100870.84
2022-11-02T02:25:11.505Z,100866.16
2022-11-02T02:27:57.228Z,100868.25
2022-11-02T02:30:24.615Z,100869.88
2022-11-02T02:33:05.940Z,100878.69
2022-11-02T02:35:59.391Z,100877.09
2022-11-02T02:38:30.824Z,100879.03
2022-11-02T02:41:09.354Z,100877.06
2022-11-02T02:44:00.726Z,100880.19
2022-11-02T02:46:40.546Z,100879.81
2022-11-02T02:49:13.500Z,100874.50
2022-11-02T02:51:42.045Z,100872.94
2022-11-02T02:54:15.188Z,100874.94
2022-11-02T02:56:50.022Z,100878.03
2022-11-02T02:59:34.144Z,100883.75
2022-11-02T03:02:01.303Z,100875.19
2022-11-02T03:04:29.958Z,100883.19
2022-11-02T03:07:01.496Z,100879.78
2022-11-02T03:09:42.063Z,100879.84
2022-11-02T03:12:16.762Z,100883.41
2022-11-02T03:14:58.441Z,100882.63
2022-11-02T03:17:48.577Z,100882.75
2022-11-02T03:20:48.562Z,100879.06
2022-11-02T03:23:33.660Z,100869.19
2022-11-02T03:26:04.464Z,100869.78
2022-11-02T03:28:54.873Z,100867.78
2022-11-02T03:31:28.510Z,100867.59
2022-11-02T03:34:15.786Z,100862.97
2022-11-02T03:39:49.769Z,100868.81
2022-11-02T03:42:19.376Z,100864.69
2022-11-02T03:44:49.741Z,100859.31
2022-11-02T03:47:20.877Z,100864.38
2022-11-02T03:49:50.534Z,100871.84
2022-11-02T03:52:23.792Z,100861.53
2022-11-02T03:55:11.560Z,100864.44
2022-11-02T03:57:46.329Z,100855.81
2022-11-02T04:00:16.322Z,100864.72
2022-11-02T04:02:48.567Z,100859.44
2022-11-02T04:05:16.262Z,100857.81
2022-11-02T04:08:07.513Z,100855.28
2022-11-02T04:10:35.202Z,100859.75
2022-11-02T04:13:21.070Z,100859.84
2022-11-02T04:15:48.367Z,100855.50
2022-11-02T04:18:34.495Z,100853.81
2022-11-02T04:21:02.522Z,100857.47
2022-11-02T04:23:48.631Z,100856.75
2022-11-02T04:26:15.672Z,100856.88
2022-11-02T04:28:42.964Z,100856.91
2022-11-02T04:31:13.097Z,100864.88
2022-11-02T04:33:41.497Z,100854.47
2022-11-02T04:36:08.780Z,100860.66
2022-11-02T04:38:42.095Z,100864.16
2022-11-02T04:41:32.420Z,100861.56
2022-11-02T04:44:00.527Z,100864.22
2022-11-02T04:46:29.800Z,100864.25
2022-11-02T04:48:57.380Z,100866.94
2022-11-02T04:51:26.621Z,100868.72
2022-11-02T04:53:55.354Z,100876.59
2022-11-02T04:56:22.838Z,100882.75
2022-11-02T04:59:01.816Z,100874.00
2022-11-02T05:01:35.703Z,100868.72
2022-11-02T05:04:04.720Z,100872.22
2022-11-02T05:06:31.663Z,100874.00
2022-11-02T05:08:58.900Z,100887.16
2022-11-02T05:11:25.870Z,100878.44
2022-11-02T05:16:46.314Z,100890.69
2022-11-02T05:22:20.079Z,100899.44
2022-11-02T05:24:47.292Z,100897.75
2022-11-02T05:27:14.532Z,100897.75
2022-11-02T05:29:42.063Z,100904.66
2022-11-02T05:32:09.328Z,100898.44
2022-11-02T05:34:38.198Z,100911.47
2022-11-02T05:37:05.760Z,100899.09
2022-11-02T05:39:33.068Z,100914.81
2022-11-02T05:42:00.119Z,100916.44
2022-11-02T05:44:27.369Z,100913.63
2022-11-02T05:46:54.335Z,100920.53
2022-11-02T05:49:21.926Z,100920.41
2022-11-02T05:51:49.513Z,100929.00
2022-11-02T05:54:18.105Z,100938.53
2022-11-02T05:56:45.824Z,100929.63
2022-11-02T06:04:44.669Z,100924.75
2022-11-02T06:07:11.955Z,100928.94
2022-11-02T06:09:39.382Z,100940.13
2022-11-02T06:14:51.893Z,100937.19
2022-11-02T06:17:20.009Z,100933.53
2022-11-02T06:19:48.202Z,100941.16
2022-11-02T06:22:15.256Z,100942.78
2022-11-02T06:24:42.513Z,100941.63
2022-11-02T06:27:09.541Z,100943.88
2022-11-02T06:29:36.799Z,100940.03
2022-11-02T06:32:03.912Z,100943.19
2022-11-02T06:34:31.185Z,100941.84
2022-11-02T06:40:25.631Z,100941.41
2022-11-02T06:43:15.281Z,100939.06
2022-11-02T06:45:43.815Z,100945.38
2022-11-02T06:48:13.735Z,100942.97
2022-11-02T06:50:43.728Z,100936.19
2022-11-02T06:55:55.611Z,100940.13
2022-11-02T06:58:24.216Z,100927.94
2022-11-02T07:00:56.561Z,100924.72
2022-11-02T07:03:47.670Z,100931.31
2022-11-02T07:06:25.631Z,100932.38
2022-11-02T07:08:53.811Z,100927.44
2022-11-02T07:11:22.190Z,100923.28
2022-11-02T07:13:51.895Z,100929.69
2022-11-02T07:16:21.563Z,100928.41
2022-11-02T07:21:33.401Z,100922.09
2022-11-02T07:24:00.829Z,100917.31
2022-11-02T07:26:34.448Z,100922.09
2022-11-02T07:29:01.431Z,100914.63
2022-11-02T07:31:28.712Z,100912.31
2022-11-02T07:33:55.744Z,100904.94
2022-11-02T07:36:23.197Z,100901.16
2022-11-02T07:38:50.130Z,100913.94
2022-11-02T07:41:17.344Z,100903.22
2022-11-02T07:43:44.465Z,100900.03
2022-11-02T07:46:12.652Z,100897.72
2022-11-02T07:48:39.878Z,100902.59
2022-11-02T07:53:55.593Z,100906.19
2022-11-02T07:56:22.907Z,100906.63
2022-11-02T07:58:49.842Z,100908.03
2022-11-02T08:01:17.070Z,100899.72
2022-11-02T08:03:44.146Z,100895.03
2022-11-02T08:06:11.360Z,100900.88
2022-11-02T08:08:38.296Z,100905.06
2022-11-02T08:11:09.313Z,100908.88
2022-11-02T08:13:42.196Z,100908.59
2022-11-02T08:16:09.719Z,100899.25
2022-11-02T08:21:40.795Z,100897.66
2022-11-02T08:24:08.214Z,100899.63
2022-11-02T08:26:35.221Z,100892.03
2022-11-02T08:29:03.268Z,100891.72
2022-11-02T08:31:30.248Z,100898.38
2022-11-02T08:33:58.855Z,100891.91
2022-11-02T08:36:25.871Z,100893.16
2022-11-02T08:38:53.182Z,100888.19
2022-11-02T08:41:21.533Z,100896.59
2022-11-02T08:43:49.507Z,100891.78
2022-11-02T08:46:47.717Z,100894.59
2022-11-02T08:49:18.662Z,100881.50
2022-11-02T08:51:45.975Z,100868.56
2022-11-02T08:54:13.950Z,100888.72
2022-11-02T08:56:41.131Z,100884.38
2022-11-02T08:59:08.943Z,100867.31
2022-11-02T09:01:35.957Z,100879.44
2022-11-02T09:04:06.004Z,100864.03
2022-11-02T09:06:32.999Z,100863.91
2022-11-02T09:09:00.426Z,100872.91
2022-11-02T09:11:27.574Z,100868.94
2022-11-02T09:13:57.116Z,100872.75
2022-11-02T09:16:24.393Z,100857.78
2022-11-02T09:18:52.547Z,100861.78
2022-11-02T09:21:19.487Z,100856.78
2022-11-02T09:23:48.641Z,100847.81
2022-11-02T09:26:16.085Z,100850.47
2022-11-02T09:28:43.562Z,100867.78
2022-11-02T09:31:11.772Z,100864.28
2022-11-02T09:33:39.594Z,100864.56
2022-11-02T09:36:07.298Z,100867.00
2022-11-02T09:38:34.692Z,100839.75
2022-11-02T09:41:22.000Z,100855.97
2022-11-02T09:43:58.216Z,100861.97
2022-11-02T09:46:32.705Z,100863.38
2022-11-02T09:49:00.260Z,100850.53
2022-11-02T09:51:35.239Z,100847.38
2022-11-02T09:54:17.153Z,100849.81
2022-11-02T09:56:46.362Z,100835.22
2022-11-02T09:59:24.634Z,100849.75
2022-11-02T10:02:05.779Z,100849.94
2022-11-02T10:05:10.741Z,100845.78
2022-11-02T10:07:43.686Z,100837.47
2022-11-02T10:10:10.979Z,100835.41
2022-11-02T10:12:58.084Z,100819.28
2022-11-02T10:15:37.210Z,100826.34
2022-11-02T10:18:05.708Z,100826.19
2022-11-02T10:20:42.582Z,100822.16
2022-11-02T10:23:18.587Z,100818.47
2022-11-02T10:25:48.489Z,100815.75
2022-11-02T10:28:27.421Z,100817.19
2022-11-02T10:30:55.680Z,100795.56
2022-11-02T10:33:26.984Z,100815.25
2022-11-02T10:36:28.186Z,100789.75
2022-11-02T10:38:55.019Z,100796.41
2022-11-02T10:41:39.147Z,100789.94
2022-11-02T10:44:22.303Z,100792.66
2022-11-02T10:47:05.615Z,100793.66
2022-11-02T10:50:12.562Z,100786.31
2022-11-02T10:52:43.646Z,100797.31
2022-11-02T10:55:41.433Z,100781.78
2022-11-02T10:58:15.957Z,100773.84
2022-11-02T11:00:43.371Z,100780.81
2022-11-02T11:03:13.409Z,100770.94
2022-11-02T11:06:02.824Z,100788.41
2022-11-02T11:08:43.022Z,100782.22
2022-11-02T11:11:21.518Z,100771.91
2022-11-02T11:16:52.410Z,100779.91
2022-11-02T11:22:22.553Z,100777.53
2022-11-02T11:24:49.967Z,100775.25
2022-11-02T11:27:23.997Z,100781.78
2022-11-02T11:29:59.100Z,100785.63
2022-11-02T11:32:30.562Z,100782.44
2022-11-02T11:35:14.868Z,100776.09
2022-11-02T11:37:54.813Z,100776.88
2022-11-02T11:40:23.409Z,100780.97
2022-11-02T11:42:56.363Z,100778.28
2022-11-02T11:45:27.962Z,100765.34
2022-11-02T11:48:32.567Z,100787.91
2022-11-02T11:51:02.609Z,100769.88
2022-11-02T11:53:30.008Z,100774.91
2022-11-02T11:55:59.950Z,100764.59
2022-11-02T11:58:30.088Z,100768.50
2022-11-02T12:01:13.023Z,100778.28
2022-11-02T12:03:53.912Z,100776.19
2022-11-02T12:06:59.814Z,100799.25
2022-11-02T12:09:45.781Z,100796.38
2022-11-02T12:12:34.575Z,100800.97
2022-11-02T12:15:23.110Z,100796.66
2022-11-02T12:18:06.823Z,100790.72
2022-11-02T12:21:22.292Z,100793.78
2022-11-02T12:24:18.973Z,100788.84
2022-11-02T12:27:41.852Z,100792.19
2022-11-02T12:30:11.304Z,100783.34
2022-11-02T12:32:53.539Z,100788.06
2022-11-02T12:35:55.991Z,100778.28
2022-11-02T12:39:04.493Z,100770.63
2022-11-02T12:41:51.272Z,100793.66
2022-11-02T12:47:59.774Z,100777.88
2022-11-02T12:58:06.981Z,100799.84
2022-11-02T13:04:54.756Z,100799.59
2022-11-02T13:08:27.250Z,100793.53
2022-11-02T13:11:46.183Z,100777.50
2022-11-02T13:15:16.270Z,100795.97
2022-11-02T13:18:53.077Z,100795.97
2022-11-02T13:22:15.879Z,100795.13
2022-11-02T13:25:03.660Z,100804.97
2022-11-02T13:28:20.307Z,100798.84
2022-11-02T13:31:00.737Z,100799.09
2022-11-02T13:34:12.247Z,100797.53
2022-11-02T13:36:46.795Z,100792.84
2022-11-02T13:39:30.309Z,100797.88
2022-11-02T13:42:33.760Z,100797.28
2022-11-02T13:45:30.797Z,100801.09
2022-11-02T13:48:23.073Z,100806.50
2022-11-02T13:50:55.646Z,100801.41
2022-11-02T13:53:48.460Z,100807.53
2022-11-02T13:56:24.447Z,100807.72
2022-11-02T13:59:20.931Z,100806.50
2022-11-02T14:01:53.846Z,100819.34
2022-11-02T14:04:22.666Z,100807.25
2022-11-02T14:06:53.589Z,100805.63
2022-11-02T14:09:42.456Z,100816.56
2022-11-02T14:12:21.983Z,100815.06
2022-11-02T14:15:15.532Z,100817.47
2022-11-02T14:17:55.311Z,100814.97
2022-11-02T14:20:47.681Z,100807.53
2022-11-02T14:23:14.952Z,100811.91
2022-11-02T14:28:44.456Z,100819.47
2022-11-02T14:31:18.294Z,100822.25
2022-11-02T14:34:12.027Z,100824.09
2022-11-02T14:36:47.513Z,100817.13
2022-11-02T14:39:35.211Z,100823.31
2022-11-02T14:42:36.870Z,100831.75
2022-11-02T14:45:48.882Z,100821.19
2022-11-02T14:48:16.969Z,100833.91
2022-11-02T14:51:06.955Z,100835.72
2022-11-02T14:53:36.232Z,100820.81
2022-11-02T14:56:03.720Z,100830.63
2022-11-02T14:58:48.497Z,100831.75
2022-11-02T15:01:16.986Z,100838.91
2022-11-02T15:03:45.234Z,100840.59
2022-11-02T15:06:12.843Z,100842.25
2022-11-02T15:09:08.104Z,100843.22
2022-11-02T15:11:57.031Z,100842.50
2022-11-02T15:14:38.384Z,100847.91
2022-11-02T15:17:22.207Z,100843.53
2022-11-02T15:20:16.535Z,100860.34
2022-11-02T15:23:31.594Z,100838.44
2022-11-02T15:25:59.551Z,100845.94
2022-11-02T15:28:33.902Z,100858.06
2022-11-02T15:31:23.155Z,100867.00
2022-11-02T15:33:59.071Z,100854.66
2022-11-02T15:36:36.724Z,100856.56
2022-11-02T15:39:08.823Z,100861.91
2022-11-02T15:41:42.035Z,100862.75
2022-11-02T15:44:33.161Z,100870.94
2022-11-02T15:47:14.699Z,100868.50
2022-11-02T15:50:16.787Z,100870.16
2022-11-02T15:53:22.438Z,100872.81
2022-11-02T15:56:09.920Z,100879.97
2022-11-02T15:58:45.900Z,100872.81
2022-11-02T16:01:26.935Z,100883.56
2022-11-02T16:06:44.456Z,100888.19
2022-11-02T16:09:29.761Z,100889.22
2022-11-02T16:12:17.118Z,100881.34
2022-11-02T16:14:44.908Z,100886.69
2022-11-02T16:17:30.495Z,100887.72
2022-11-02T16:23:29.334Z,100891.47
2022-11-02T16:26:00.655Z,100891.41
2022-11-02T16:28:30.414Z,100893.34
2022-11-02T16:30:58.374Z,100894.38
2022-11-02T16:33:27.040Z,100896.38
2022-11-02T16:35:55.157Z,100886.50
2022-11-02T16:38:23.306Z,100893.72
2022-11-02T16:43:37.863Z,100906.22
2022-11-02T16:46:07.190Z,100911.56
2022-11-02T16:48:34.330Z,100917.03
2022-11-02T16:51:26.933Z,100920.59
2022-11-02T16:53:55.347Z,100910.75
2022-11-02T16:56:35.822Z,100915.44
2022-11-02T16:59:06.904Z,100916.53
2022-11-02T17:02:02.269Z,100917.53
2022-11-02T17:04:32.668Z,100905.50
2022-11-02T17:07:28.464Z,100921.66
2022-11-02T17:09:57.662Z,100912.00
2022-11-02T17:12:37.263Z,100928.06
2022-11-02T17:15:16.361Z,100917.56
2022-11-02T17:17:44.112Z,100927.34
2022-11-02T17:20:11.743Z,100919.50
2022-11-02T17:22:50.871Z,100915.22
2022-11-02T17:25:26.915Z,100922.22
2022-11-02T17:27:56.601Z,100929.44
2022-11-02T17:30:43.068Z,100931.31
2022-11-02T17:33:25.153Z,100928.56
2022-11-02T17:36:00.076Z,100928.56
2022-11-02T17:38:38.174Z,100916.22
2022-11-02T17:41:26.210Z,100933.97
2022-11-02T17:43:58.672Z,100919.78
2022-11-02T17:46:25.737Z,100930.44
2022-11-02T17:48:55.710Z,100930.56
2022-11-02T17:51:24.736Z,100944.59
2022-11-02T17:53:52.868Z,100939.31
2022-11-02T17:59:03.610Z,100948.25
2022-11-02T18:01:30.919Z,100941.25
2022-11-02T18:03:58.534Z,100951.97
2022-11-02T18:06:25.665Z,100947.53
2022-11-02T18:09:11.501Z,100934.03
2022-11-02T18:11:38.547Z,100954.53
2022-11-02T18:14:06.053Z,100957.47
2022-11-02T18:16:33.073Z,100954.81
2022-11-02T18:19:00.646Z,100953.06
2022-11-02T18:21:27.955Z,100951.53
2022-11-02T18:23:55.806Z,100947.22
2022-11-02T18:26:24.709Z,100963.25
2022-11-02T18:28:52.058Z,100958.19
2022-11-02T18:31:19.306Z,100953.06
2022-11-02T18:33:47.661Z,100961.06
2022-11-02T18:36:14.826Z,100947.19
2022-11-02T18:38:44.607Z,100952.53
2022-11-02T18:41:30.738Z,100958.88
2022-11-02T18:44:04.938Z,100966.13
2022-11-02T18:46:34.346Z,100966.06
2022-11-02T18:49:16.191Z,100960.19
2022-11-02T18:55:02.769Z,100964.88
2022-11-02T18:57:33.271Z,100975.53
2022-11-02T19:00:02.728Z,100968.59
2022-11-02T19:02:30.805Z,100975.66
2022-11-02T19:04:57.951Z,100989.91
2022-11-02T19:07:43.971Z,100990.94
2022-11-02T19:10:11.069Z,100979.63
2022-11-02T19:12:38.717Z,100976.09
2022-11-02T19:15:06.498Z,100981.69
2022-11-02T19:17:48.430Z,100985.13
2022-11-02T19:20:15.416Z,101001.16
2022-11-02T19:25:24.798Z,100989.69
2022-11-02T19:27:52.151Z,100998.69
2022-11-02T19:30:23.708Z,101010.06
2022-11-02T19:32:51.953Z,101006.59
2022-11-02T19:35:19.085Z,101013.88
2022-11-02T19:37:47.765Z,101006.00
2022-11-02T19:40:15.271Z,101011.31
2022-11-02T19:42:44.106Z,101005.31
2022-11-02T19:45:17.489Z,101018.72
2022-11-02T19:47:48.612Z,101018.97
2022-11-02T19:50:20.929Z,101031.47
2022-11-02T19:56:29.581Z,101037.66
2022-11-02T19:59:06.405Z,101034.16
2022-11-02T20:01:40.021Z,101041.13
2022-11-02T20:04:09.039Z,101031.47
2022-11-02T20:06:48.064Z,101044.59
2022-11-02T20:09:20.502Z,101041.81
2022-11-02T20:11:48.373Z,101040.78
2022-11-02T20:14:17.733Z,101041.50
2022-11-02T20:16:47.340Z,101047.72
2022-11-02T20:19:21.361Z,101037.16
2022-11-02T20:21:48.725Z,101042.50
2022-11-02T20:24:16.598Z,101041.63
2022-11-02T20:26:43.760Z,101034.00
2022-11-02T20:29:15.238Z,101037.66
2022-11-02T20:31:45.724Z,101038.72
2022-11-02T20:34:13.754Z,101035.25
2022-11-02T20:36:41.450Z,101042.25
2022-11-02T20:39:11.029Z,101044.81
2022-11-02T20:41:38.054Z,101057.88
2022-11-02T20:44:05.601Z,101052.56
2022-11-02T20:46:39.118Z,101055.03
2022-11-02T20:49:21.088Z,101048.94
2022-11-02T20:51:53.136Z,101054.22
2022-11-02T20:54:25.127Z,101060.16
2022-11-02T20:56:52.127Z,101060.25
2022-11-02T20:59:19.715Z,101053.97
2022-11-02T21:01:47.446Z,101055.72
2022-11-02T21:04:32.199Z,101047.22
2022-11-02T21:07:00.767Z,101044.47
2022-11-02T21:09:27.913Z,101051.44
2022-11-02T21:12:13.815Z,101052.25
2022-11-02T21:14:40.833Z,101061.84
2022-11-02T21:17:09.988Z,101050.31
2022-11-02T21:19:37.540Z,101051.09
2022-11-02T21:22:07.591Z,101056.38
2022-11-02T21:24:34.599Z,101056.38
2022-11-02T21:27:02.359Z,101043.09
2022-11-02T21:29:32.358Z,101049.19
2022-11-02T21:32:03.496Z,101048.31
2022-11-02T21:34:33.149Z,101047.38
2022-11-02T21:37:06.615Z,101046.53
2022-11-02T21:39:36.165Z,101054.50
2022-11-02T21:42:04.118Z,101045.91
2022-11-02T21:44:33.090Z,101059.78
2022-11-02T21:47:01.895Z,101058.13
2022-11-02T21:49:31.286Z,101056.38
2022-11-02T21:51:58.666Z,101057.19
2022-11-02T21:54:25.692Z,101046.66
2022-11-02T21:56:53.045Z,101044.97
2022-11-02T21:59:20.144Z,101045.97
2022-11-02T22:01:49.517Z,101037.38
2022-11-02T22:04:31.686Z,101053.25
2022-11-02T22:07:00.600Z,101048.94
2022-11-02T22:09:30.661Z,101060.59
2022-11-02T22:12:21.491Z,101058.03
2022-11-02T22:14:48.598Z,101060.53
2022-11-02T22:17:22.066Z,101055.25
2022-11-02T22:20:04.314Z,101062.22
2022-11-02T22:22:31.666Z,101048.88
2022-11-02T22:24:58.979Z,101043.50
2022-11-02T22:27:29.130Z,101050.69
2022-11-02T22:29:56.231Z,101056.94
2022-11-02T22:32:23.762Z,101074.53
2022-11-02T22:34:51.134Z,101071.00
2022-11-02T22:37:39.626Z,101076.34
2022-11-02T22:40:06.932Z,101084.28
2022-11-02T22:42:38.188Z,101083.31
2022-11-02T22:45:09.193Z,101086.00
2022-11-02T22:47:36.717Z,101091.22
2022-11-02T22:50:05.334Z,101100.88
2022-11-02T22:52:33.309Z,101086.75
2022-11-02T22:55:00.416Z,101093.94
2022-11-02T22:57:29.269Z,101085.03
2022-11-02T22:59:56.845Z,101085.94
2022-11-02T23:02:24.223Z,101089.41
2022-11-02T23:04:51.327Z,101084.94
2022-11-02T23:07:18.613Z,101084.94
2022-11-02T23:09:46.090Z,101091.97
2022-11-02T23:12:14.460Z,101091.06
2022-11-02T23:14:41.548Z,101097.16
2022-11-02T23:17:08.662Z,101093.59
2022-11-02T23:19:38.667Z,101097.09
2022-11-02T23:22:26.583Z,101105.97
2022-11-02T23:25:14.403Z,101097.06
2022-11-02T23:28:06.028Z,101094.56
2022-11-02T23:30:57.570Z,101094.50
2022-11-02T23:33:29.516Z,101098.09
2022-11-02T23:36:13.122Z,101106.16
2022-11-02T23:39:03.501Z,101098.34
2022-11-02T23:41:32.899Z,101105.41
2022-11-02T23:44:12.636Z,101110.78
2022-11-02T23:46:44.347Z,101114.25
2022-11-02T23:49:12.444Z,101110.78
2022-11-02T23:52:01.368Z,101111.69
2022-11-02T23:54:47.115Z,101115.25
2022-11-02T23:57:14.574Z,101119.66
2022-11-02T23:59:41.531Z,101122.19
